createdAt,value
2022-11-28T00:01:52.885Z,100206.69
2022-11-28T00:04:54.568Z,100212.47
2022-11-28T00:07:56.601Z,100193.44
2022-11-28T00:10:58.494Z,100194.38
2022-11-28T00:14:00.285Z,100178.09
2022-11-28T00:17:03.406Z,100179.25
2022-11-28T00:20:06.867Z,100169.69
2022-11-28T00:23:08.544Z,100178.59
2022-11-28T00:26:12.321Z,100181.72
2022-11-28T00:29:13.949Z,100178.38
2022-11-28T00:32:17.058Z,100193.03
2022-11-28T00:35:18.726Z,100204.22
2022-11-28T00:38:20.494Z,100195.81
2022-11-28T00:41:24.427Z,100201.53
2022-11-28T00:44:26.261Z,100192.63
2022-11-28T00:47:29.263Z,100180.94
2022-11-28T00:50:30.929Z,100176.78
2022-11-28T00:53:32.580Z,100184.69
2022-11-28T00:56:36.627Z,100188.28
2022-11-28T00:59:38.316Z,100190.38
2022-11-28T01:02:41.457Z,100179.50
2022-11-28T01:05:43.556Z,100189.00
2022-11-28T01:08:45.214Z,100201.63
2022-11-28T01:11:51.763Z,100196.09
2022-11-28T01:14:53.670Z,100207.63
2022-11-28T01:17:56.671Z,100198.41
2022-11-28T01:20:58.265Z,100193.78
2022-11-28T01:23:59.934Z,100188.69
2022-11-28T01:27:01.622Z,100197.75
2022-11-28T01:30:04.606Z,100199.78
2022-11-28T01:33:07.618Z,100194.47
2022-11-28T01:36:11.087Z,100187.97
2022-11-28T01:39:15.636Z,100178.53
2022-11-28T01:42:18.246Z,100181.84
2022-11-28T01:45:22.240Z,100177.06
2022-11-28T01:48:27.489Z,100170.88
2022-11-28T01:51:30.194Z,100158.03
2022-11-28T01:54:35.020Z,100149.28
2022-11-28T01:57:37.022Z,100146.13
2022-11-28T02:00:38.950Z,100133.13
2022-11-28T02:03:44.848Z,100148.16
2022-11-28T02:06:46.442Z,100152.56
2022-11-28T02:09:48.059Z,100132.94
2022-11-28T02:13:14.324Z,100115.44
2022-11-28T02:16:34.784Z,100103.41
2022-11-28T02:20:07.345Z,100112.03
2022-11-28T02:23:17.768Z,100105.53
2022-11-28T02:26:52.061Z,100089.81
2022-11-28T02:30:18.488Z,100094.72
2022-11-28T02:33:27.503Z,100110.75
2022-11-28T02:36:34.988Z,100118.69
2022-11-28T02:39:44.951Z,100107.50
2022-11-28T02:42:54.890Z,100094.69
2022-11-28T02:46:06.381Z,100098.16
2022-11-28T02:49:14.625Z,100101.72
2022-11-28T02:52:21.256Z,100095.28
2022-11-28T02:55:24.042Z,100093.59
2022-11-28T02:58:26.101Z,100103.41
2022-11-28T03:01:32.921Z,100101.16
2022-11-28T03:04:42.790Z,100094.16
2022-11-28T03:07:59.400Z,100089.47
2022-11-28T03:11:08.233Z,100079.34
2022-11-28T03:14:19.648Z,100082.13
2022-11-28T03:17:27.823Z,100082.25
2022-11-28T03:20:40.808Z,100076.06
2022-11-28T03:23:46.358Z,100065.84
2022-11-28T03:26:53.803Z,100072.13
2022-11-28T03:30:00.614Z,100080.22
2022-11-28T03:33:03.875Z,100079.81
2022-11-28T03:36:13.695Z,100066.91
2022-11-28T03:39:20.217Z,100061.63
2022-11-28T03:42:24.531Z,100059.25
2022-11-28T03:45:29.597Z,100057.06
2022-11-28T03:48:34.046Z,100050.72
2022-11-28T03:51:41.870Z,100050.31
2022-11-28T03:54:49.718Z,100046.25
2022-11-28T03:57:57.802Z,100047.25
2022-11-28T04:01:06.526Z,100042.22
2022-11-28T04:04:16.430Z,100048.19
2022-11-28T04:07:27.234Z,100054.31
2022-11-28T04:10:33.368Z,100060.09
2022-11-28T04:13:38.527Z,100051.94
2022-11-28T04:16:47.227Z,100050.13
2022-11-28T04:19:59.550Z,100042.34
2022-11-28T04:23:07.157Z,100040.47
2022-11-28T04:26:14.456Z,100040.13
2022-11-28T04:29:20.840Z,100035.00
2022-11-28T04:32:24.955Z,100049.19
2022-11-28T04:35:31.281Z,100058.28
2022-11-28T04:38:35.643Z,100058.28
2022-11-28T04:41:42.133Z,100069.09
2022-11-28T04:44:48.619Z,100066.84
2022-11-28T04:47:50.379Z,100061.53
2022-11-28T04:51:00.511Z,100052.63
2022-11-28T04:54:11.127Z,100056.69
2022-11-28T04:57:16.299Z,100051.13
2022-11-28T05:00:19.455Z,100052.03
2022-11-28T05:03:22.740Z,100041.06
2022-11-28T05:06:26.756Z,100040.03
2022-11-28T05:09:29.805Z,100035.53
2022-11-28T05:12:31.552Z,100040.66
2022-11-28T05:15:33.513Z,100043.22
2022-11-28T05:18:35.115Z,100037.41
2022-11-28T05:21:36.927Z,100032.81
2022-11-28T05:24:40.037Z,100018.06
2022-11-28T05:27:41.656Z,100018.81
2022-11-28T05:30:45.087Z,100008.41
2022-11-28T05:33:47.101Z,100015.38
2022-11-28T05:36:48.725Z,100004.38
2022-11-28T05:39:51.877Z,100004.97
2022-11-28T05:42:53.590Z,99999.84
2022-11-28T05:45:55.794Z,100004.63
2022-11-28T05:48:58.190Z,100002.41
2022-11-28T05:52:00.091Z,99999.81
2022-11-28T05:55:03.234Z,99998.66
2022-11-28T05:58:05.183Z,99992.91
2022-11-28T06:01:11.804Z,99995.78
2022-11-28T06:04:13.605Z,99999.13
2022-11-28T06:07:15.286Z,99993.50
2022-11-28T06:10:19.307Z,99993.28
2022-11-28T06:13:20.940Z,99982.75
2022-11-28T06:16:25.142Z,99983.41
2022-11-28T06:19:26.815Z,99988.56
2022-11-28T06:22:28.627Z,99974.78
2022-11-28T06:25:31.716Z,99984.00
2022-11-28T06:28:33.375Z,99985.31
2022-11-28T06:31:35.241Z,99978.66
2022-11-28T06:34:37.363Z,99978.59
2022-11-28T06:37:39.096Z,99991.81
2022-11-28T06:40:42.113Z,99994.41
2022-11-28T06:43:43.820Z,99997.25
2022-11-28T06:46:45.468Z,100002.19
2022-11-28T06:49:48.289Z,100006.09
2022-11-28T06:52:49.978Z,100007.03
2022-11-28T06:55:52.977Z,100012.91
2022-11-28T06:58:56.618Z,100016.38
2022-11-28T07:02:06.863Z,100018.00
2022-11-28T07:05:09.811Z,100022.97
2022-11-28T07:08:11.620Z,100020.78
2022-11-28T07:11:17.307Z,100032.78
2022-11-28T07:14:18.985Z,100037.81
2022-11-28T07:17:20.624Z,100036.22
2022-11-28T07:20:22.356Z,100037.03
2022-11-28T07:23:24.064Z,100038.06
2022-11-28T07:26:27.367Z,100046.56
2022-11-28T07:29:35.828Z,100044.28
2022-11-28T07:32:40.337Z,100040.00
2022-11-28T07:35:42.000Z,100041.84
2022-11-28T07:38:46.503Z,100039.78
2022-11-28T07:41:49.539Z,100040.59
2022-11-28T07:44:51.261Z,100036.78
2022-11-28T07:47:52.960Z,100042.38
2022-11-28T07:50:54.657Z,100030.00
2022-11-28T07:53:56.490Z,100042.13
2022-11-28T07:57:14.893Z,100045.56
2022-11-28T08:00:18.015Z,100033.56
2022-11-28T08:03:19.898Z,100029.16
2022-11-28T08:06:24.449Z,100034.22
2022-11-28T08:09:26.157Z,100032.47
2022-11-28T08:12:29.232Z,100031.28
2022-11-28T08:15:32.073Z,100036.84
2022-11-28T08:18:33.772Z,100036.84
2022-11-28T08:21:35.605Z,100032.63
2022-11-28T08:24:37.440Z,100038.28
2022-11-28T08:27:40.421Z,100031.91
2022-11-28T08:30:42.200Z,100029.81
2022-11-28T08:33:45.086Z,100020.69
2022-11-28T08:36:48.720Z,100028.38
2022-11-28T08:39:50.450Z,100021.94
2022-11-28T08:42:53.420Z,100019.19
2022-11-28T08:45:55.313Z,100023.06
2022-11-28T08:48:57.074Z,100027.88
2022-11-28T08:51:58.727Z,100035.28
2022-11-28T08:55:00.547Z,100032.19
2022-11-28T08:58:03.573Z,100028.97
2022-11-28T09:01:14.754Z,100032.19
2022-11-28T09:04:16.504Z,100021.28
2022-11-28T09:07:18.551Z,100033.28
2022-11-28T09:10:20.469Z,100033.16
2022-11-28T09:13:23.508Z,100025.94
2022-11-28T09:16:25.221Z,100029.16
2022-11-28T09:19:27.060Z,100027.94
2022-11-28T09:22:29.449Z,100031.16
2022-11-28T09:25:31.354Z,100039.47
2022-11-28T09:28:34.326Z,100031.63
2022-11-28T09:31:36.083Z,100035.28
2022-11-28T09:34:38.016Z,100033.28
2022-11-28T09:37:39.751Z,100033.91
2022-11-28T09:40:43.737Z,100027.75
2022-11-28T09:43:52.051Z,100032.81
2022-11-28T09:47:00.512Z,100027.47
2022-11-28T09:50:10.558Z,100021.13
2022-11-28T09:53:19.516Z,100022.81
2022-11-28T09:56:22.215Z,100027.44
2022-11-28T09:59:28.418Z,100015.88
2022-11-28T10:02:36.150Z,100021.06
2022-11-28T10:05:42.568Z,100014.47
2022-11-28T10:08:56.940Z,100020.94
2022-11-28T10:12:13.925Z,100018.78
2022-11-28T10:15:29.505Z,100014.78
2022-11-28T10:18:39.847Z,100019.25
2022-11-28T10:21:45.878Z,100008.94
2022-11-28T10:24:52.943Z,100013.13
2022-11-28T10:27:55.568Z,100008.78
2022-11-28T10:31:04.691Z,100021.72
2022-11-28T10:34:13.476Z,100016.97
2022-11-28T10:37:20.533Z,100020.19
2022-11-28T10:40:28.532Z,100018.06
2022-11-28T10:43:38.714Z,100017.44
2022-11-28T10:46:55.391Z,100014.66
2022-11-28T10:50:02.522Z,100017.59
2022-11-28T10:53:15.376Z,100019.75
2022-11-28T10:56:29.861Z,100025.16
2022-11-28T10:59:43.299Z,100020.06
2022-11-28T11:02:48.833Z,100020.84
2022-11-28T11:05:50.433Z,100022.97
2022-11-28T11:08:52.211Z,100027.13
2022-11-28T11:12:00.856Z,100017.59
2022-11-28T11:15:17.084Z,100008.38
2022-11-28T11:18:24.731Z,100003.72
2022-11-28T11:21:28.583Z,100003.88
2022-11-28T11:24:30.613Z,99991.88
2022-11-28T11:27:33.047Z,99992.03
2022-11-28T11:30:38.674Z,99997.88
2022-11-28T11:33:42.751Z,99995.41
2022-11-28T11:36:44.639Z,99991.41
2022-11-28T11:39:49.333Z,99995.56
2022-11-28T11:42:53.625Z,99988.00
2022-11-28T11:46:07.403Z,99991.97
2022-11-28T11:49:28.358Z,99984.91
2022-11-28T11:52:31.682Z,99988.28
2022-11-28T11:55:43.300Z,99987.66
2022-11-28T11:58:49.148Z,99981.19
2022-11-28T12:01:57.306Z,99983.59
2022-11-28T12:05:05.430Z,99981.66
2022-11-28T12:08:14.141Z,99982.75
2022-11-28T12:11:20.599Z,99979.66
2022-11-28T12:14:27.437Z,99985.06
2022-11-28T12:17:49.471Z,99977.84
2022-11-28T12:21:04.624Z,99971.56
2022-11-28T12:24:10.585Z,99980.19
2022-11-28T12:27:32.156Z,99975.75
2022-11-28T12:30:56.471Z,99983.13
2022-11-28T12:34:10.758Z,99984.69
2022-11-28T12:37:37.319Z,99984.50
2022-11-28T12:41:14.017Z,99993.88
2022-11-28T12:44:27.015Z,99982.63
2022-11-28T12:47:39.001Z,99972.16
2022-11-28T12:50:44.088Z,99968.00
2022-11-28T12:54:03.679Z,99961.19
2022-11-28T12:57:10.037Z,99965.06
2022-11-28T13:00:18.760Z,99969.06
2022-11-28T13:03:35.891Z,99966.13
2022-11-28T13:06:48.701Z,99962.41
2022-11-28T13:10:02.569Z,99962.72
2022-11-28T13:13:09.223Z,99960.84
2022-11-28T13:16:22.052Z,99969.19
2022-11-28T13:19:34.956Z,99961.19
2022-11-28T13:22:48.991Z,99956.41
2022-11-28T13:25:55.484Z,99958.09
2022-11-28T13:29:05.578Z,99957.06
2022-11-28T13:32:16.145Z,99959.94
2022-11-28T13:35:19.633Z,99952.13
2022-11-28T13:38:36.117Z,99956.31
2022-11-28T13:42:13.951Z,99957.69
2022-11-28T13:45:19.119Z,99958.78
2022-11-28T13:49:15.535Z,99951.50
2022-11-28T13:52:32.883Z,99947.94
2022-11-28T13:55:40.652Z,99950.09
2022-11-28T13:58:50.119Z,99950.03
2022-11-28T14:01:57.038Z,99945.13
2022-11-28T14:04:59.180Z,99940.59
2022-11-28T14:08:03.267Z,99938.38
2022-11-28T14:11:27.599Z,99936.22
2022-11-28T14:15:08.502Z,99937.34
2022-11-28T14:22:04.240Z,99939.84
2022-11-28T14:25:15.018Z,99941.69
2022-11-28T14:28:23.058Z,99944.78
2022-11-28T14:31:30.948Z,99942.63
2022-11-28T14:34:38.542Z,99944.59
2022-11-28T14:37:52.704Z,99942.16
2022-11-28T14:41:04.344Z,99948.19
2022-11-28T14:44:45.774Z,99954.34
2022-11-28T14:48:02.487Z,99950.84
2022-11-28T14:51:05.815Z,99952.59
2022-11-28T14:54:19.608Z,99963.59
2022-11-28T14:57:27.581Z,99961.31
2022-11-28T15:00:37.517Z,99957.19
2022-11-28T15:03:45.446Z,99967.50
2022-11-28T15:06:50.287Z,99967.19
2022-11-28T15:10:07.230Z,99969.06
2022-11-28T15:13:29.677Z,99969.38
2022-11-28T15:16:33.671Z,99964.50
2022-11-28T15:19:42.215Z,99964.66
2022-11-28T15:22:46.556Z,99966.38
2022-11-28T15:25:52.670Z,99971.59
2022-11-28T15:29:08.455Z,99970.50
2022-11-28T15:32:13.855Z,99977.56
2022-11-28T15:35:20.553Z,99969.72
2022-11-28T15:38:24.649Z,99974.34
2022-11-28T15:41:27.575Z,99976.97
2022-11-28T15:44:30.065Z,99982.69
2022-11-28T15:47:32.659Z,99984.69
2022-11-28T15:50:36.439Z,99990.69
2022-11-28T15:53:42.284Z,99990.97
2022-11-28T15:56:56.337Z,99995.13
2022-11-28T15:59:58.446Z,99994.09
2022-11-28T16:03:00.897Z,99991.13
2022-11-28T16:06:05.000Z,99992.84
2022-11-28T16:09:26.297Z,99990.84
2022-11-28T16:12:28.700Z,99983.00
2022-11-28T16:15:31.332Z,99988.84
2022-11-28T16:18:33.074Z,99991.31
2022-11-28T16:21:45.380Z,99991.63
2022-11-28T16:24:50.282Z,99989.16
2022-11-28T16:27:57.390Z,99987.63
2022-11-28T16:30:59.393Z,99988.25
2022-11-28T16:34:02.843Z,99992.09
2022-11-28T16:37:11.027Z,99991.19
2022-11-28T16:40:19.352Z,99998.06
2022-11-28T16:43:24.791Z,99995.59
2022-11-28T16:46:35.403Z,99994.38
2022-11-28T16:49:40.230Z,100000.06
2022-11-28T16:52:47.718Z,99997.16
2022-11-28T16:55:51.114Z,99996.41
2022-11-28T16:58:54.164Z,99994.06
2022-11-28T17:01:55.937Z,100003.47
2022-11-28T17:04:57.997Z,99989.78
2022-11-28T17:08:01.666Z,100006.22
2022-11-28T17:11:04.860Z,100004.06
2022-11-28T17:14:13.131Z,100006.50
2022-11-28T17:17:17.937Z,100005.91
2022-11-28T17:20:19.613Z,100001.31
2022-11-28T17:23:25.233Z,99995.47
2022-11-28T17:26:28.406Z,99999.78
2022-11-28T17:29:30.329Z,100004.09
2022-11-28T17:32:32.118Z,100000.53
2022-11-28T17:35:40.076Z,100010.06
2022-11-28T17:38:41.862Z,100009.13
2022-11-28T17:41:46.746Z,100009.59
2022-11-28T17:44:48.455Z,100010.38
2022-11-28T17:47:51.541Z,100004.69
2022-11-28T17:50:53.317Z,100002.69
2022-11-28T17:53:55.078Z,99997.16
2022-11-28T17:56:58.413Z,99998.84
2022-11-28T18:00:00.708Z,100000.50
2022-11-28T18:03:02.557Z,99998.22
2022-11-28T18:06:05.330Z,99995.63
2022-11-28T18:09:12.005Z,100002.06
2022-11-28T18:12:15.806Z,99999.28
2022-11-28T18:15:17.628Z,99998.22
2022-11-28T18:18:19.832Z,99996.22
2022-11-28T18:21:21.681Z,100003.00
2022-11-28T18:24:23.614Z,100002.53
2022-11-28T18:27:28.169Z,100005.59
2022-11-28T18:30:30.001Z,100001.13
2022-11-28T18:33:34.199Z,100003.75
2022-11-28T18:36:37.807Z,100006.06
2022-11-28T18:39:40.891Z,100013.16
2022-11-28T18:42:44.604Z,100007.75
2022-11-28T18:45:48.157Z,100006.97
2022-11-28T18:48:49.861Z,100005.13
2022-11-28T18:51:51.705Z,100006.81
2022-11-28T18:54:54.276Z,100003.88
2022-11-28T18:57:57.355Z,100003.56
2022-11-28T19:00:59.063Z,100016.63
2022-11-28T19:04:03.486Z,100011.72
2022-11-28T19:07:05.224Z,100008.50
2022-11-28T19:10:08.451Z,100006.13
2022-11-28T19:13:11.594Z,100013.97
2022-11-28T19:16:16.781Z,100018.31
2022-11-28T19:19:18.805Z,100012.63
2022-11-28T19:22:23.149Z,100016.31
2022-11-28T19:25:24.852Z,100022.91
2022-11-28T19:28:27.869Z,100019.41
2022-11-28T19:31:32.579Z,100022.91
2022-11-28T19:34:34.378Z,100016.94
2022-11-28T19:37:36.023Z,100010.31
2022-11-28T19:40:37.724Z,100010.91
2022-11-28T19:43:41.527Z,100013.66
2022-11-28T19:46:43.586Z,100016.59
2022-11-28T19:49:45.638Z,100020.91
2022-11-28T19:52:48.303Z,100027.19
2022-11-28T19:55:50.710Z,100028.81
2022-11-28T19:58:53.773Z,100034.63
2022-11-28T20:01:55.562Z,100033.81
2022-11-28T20:04:57.564Z,100036.94
2022-11-28T20:08:00.299Z,100035.56
2022-11-28T20:11:08.328Z,100032.84
2022-11-28T20:14:13.530Z,100033.31
2022-11-28T20:17:15.918Z,100039.13
2022-11-28T20:20:19.148Z,100040.47
2022-11-28T20:23:20.858Z,100042.94
2022-11-28T20:26:26.645Z,100047.56
2022-11-28T20:29:30.984Z,100051.44
2022-11-28T20:32:33.014Z,100052.94
2022-11-28T20:35:34.816Z,100059.56
2022-11-28T20:38:37.419Z,100057.84
2022-11-28T20:41:39.714Z,100052.91
2022-11-28T20:44:42.784Z,100062.44
2022-11-28T20:47:49.667Z,100062.44
2022-11-28T20:50:51.765Z,100062.75
2022-11-28T20:53:54.097Z,100061.66
2022-11-28T20:57:20.410Z,100062.59
2022-11-28T21:00:24.951Z,100062.75
2022-11-28T21:03:28.718Z,100063.53
2022-11-28T21:06:30.458Z,100066.28
2022-11-28T21:09:32.186Z,100066.28
2022-11-28T21:12:34.067Z,100069.19
2022-11-28T21:15:41.228Z,100065.81
2022-11-28T21:18:44.401Z,100068.59
2022-11-28T21:21:46.057Z,100062.47
2022-11-28T21:24:50.423Z,100063.72
2022-11-28T21:27:52.080Z,100070.31
2022-11-28T21:30:55.221Z,100063.38
2022-11-28T21:33:58.402Z,100068.28
2022-11-28T21:37:00.154Z,100078.91
2022-11-28T21:40:01.849Z,100078.44
2022-11-28T21:43:03.584Z,100073.66
2022-11-28T21:46:09.581Z,100070.44
2022-11-28T21:49:11.454Z,100074.13
2022-11-28T21:52:16.073Z,100062.16
2022-11-28T21:55:19.208Z,100064.28
2022-11-28T21:58:26.330Z,100071.50
2022-11-28T22:01:30.007Z,100071.66
2022-11-28T22:04:32.224Z,100068.28
2022-11-28T22:07:35.650Z,100068.28
2022-11-28T22:10:37.459Z,100070.16
2022-11-28T22:13:40.007Z,100064.78
2022-11-28T22:16:43.294Z,100070.59
2022-11-28T22:19:44.900Z,100070.16
2022-11-28T22:22:49.288Z,100075.09
2022-11-28T22:25:52.218Z,100080.63
2022-11-28T22:28:54.246Z,100080.69
2022-11-28T22:31:59.575Z,100073.13
2022-11-28T22:35:02.707Z,100070.19
2022-11-28T22:38:04.438Z,100070.03
2022-11-28T22:41:10.411Z,100074.50
2022-11-28T22:44:12.466Z,100078.81
2022-11-28T22:47:15.498Z,100081.56
2022-11-28T22:50:17.683Z,100078.81
2022-11-28T22:53:19.767Z,100078.16
2022-11-28T22:56:21.547Z,100087.09
2022-11-28T22:59:23.186Z,100086.38
2022-11-28T23:02:26.260Z,100093.59
2022-11-28T23:05:28.075Z,100087.13
2022-11-28T23:08:29.955Z,100096.38
2022-11-28T23:11:34.792Z,100087.91
2022-11-28T23:14:38.561Z,100091.75
2022-11-28T23:17:42.080Z,100088.97
2022-11-28T23:20:43.808Z,100093.31
2022-11-28T23:23:46.024Z,100092.34
2022-11-28T23:26:49.189Z,100088.63
2022-11-28T23:29:50.879Z,100084.94
2022-11-28T23:32:53.905Z,100087.38
2022-11-28T23:35:55.583Z,100089.41
2022-11-28T23:38:59.813Z,100092.63
2022-11-28T23:42:01.453Z,100093.06
2022-11-28T23:45:03.602Z,100092.63
2022-11-28T23:48:06.905Z,100090.16
2022-11-28T23:51:08.600Z,100094.47
2022-11-28T23:54:11.287Z,100085.53
2022-11-28T23:57:12.881Z,100091.34
